Terminal Aerodrome Forecast
Issued by NWS Louisville, KY

Home | Current Version | Previous Version | Text Only | Print | Product List | Glossary On
Versions: 1 2 3 4 5 6 7 8 9 10 11 12
000
FTUS43 KLMK 212300
TAFBWG
TAF
KBWG 212323Z 2200/2224 11004KT P6SM FEW040
     FM220300 VRB04KT P6SM BKN040
     FM220900 18005KT P6SM BKN060
     FM221400 19012G19KT P6SM BKN080=

USA.gov is the U.S. government's official web portal to all federal, state and local government web resources and services.